Map

Track Data

SID SEASON NUMBER BASIN SUBBASIN NAME ISO_TIME NATURE LAT LON WMO_WIND WMO_PRES WMO_AGENCY TRACK_TYPE DIST2LAND LANDFALL IFLAG USA_AGENCY USA_ATCF_ID USA_LAT USA_LON USA_RECORD USA_STATUS USA_WIND USA_PRES USA_SSHS USA_R34_NE USA_R34_SE USA_R34_SW USA_R34_NW USA_R50_NE USA_R50_SE USA_R50_SW USA_R50_NW USA_R64_NE USA_R64_SE USA_R64_SW USA_R64_NW USA_POCI USA_ROCI USA_RMW USA_EYE TOKYO_LAT TOKYO_LON TOKYO_GRADE TOKYO_WIND TOKYO_PRES TOKYO_R50_DIR TOKYO_R50_LONG TOKYO_R50_SHORT TOKYO_R30_DIR TOKYO_R30_LONG TOKYO_R30_SHORT TOKYO_LAND CMA_LAT CMA_LON CMA_CAT CMA_WIND CMA_PRES HKO_LAT HKO_LON HKO_CAT HKO_WIND HKO_PRES NEWDELHI_LAT NEWDELHI_LON NEWDELHI_GRADE NEWDELHI_WIND NEWDELHI_PRES NEWDELHI_CI NEWDELHI_DP NEWDELHI_POCI REUNION_LAT REUNION_LON REUNION_TYPE REUNION_WIND REUNION_PRES REUNION_TNUM REUNION_CI REUNION_RMW REUNION_R34_NE REUNION_R34_SE REUNION_R34_SW REUNION_R34_NW REUNION_R50_NE REUNION_R50_SE REUNION_R50_SW REUNION_R50_NW REUNION_R64_NE REUNION_R64_SE REUNION_R64_SW REUNION_R64_NW BOM_LAT BOM_LON BOM_TYPE BOM_WIND BOM_PRES BOM_TNUM BOM_CI BOM_RMW BOM_R34_NE BOM_R34_SE BOM_R34_SW BOM_R34_NW BOM_R50_NE BOM_R50_SE BOM_R50_SW BOM_R50_NW BOM_R64_NE BOM_R64_SE BOM_R64_SW BOM_R64_NW BOM_ROCI BOM_POCI BOM_EYE BOM_POS_METHOD BOM_PRES_METHOD NADI_LAT NADI_LON NADI_CAT NADI_WIND NADI_PRES WELLINGTON_LAT WELLINGTON_LON WELLINGTON_WIND WELLINGTON_PRES DS824_LAT DS824_LON DS824_STAGE DS824_WIND DS824_PRES TD9636_LAT TD9636_LON TD9636_STAGE TD9636_WIND TD9636_PRES TD9635_LAT TD9635_LON TD9635_WIND TD9635_PRES TD9635_ROCI NEUMANN_LAT NEUMANN_LON NEUMANN_CLASS NEUMANN_WIND NEUMANN_PRES MLC_LAT MLC_LON MLC_CLASS MLC_WIND MLC_PRES USA_GUST BOM_GUST BOM_GUST_PER REUNION_GUST REUNION_GUST_PER USA_SEAHGT USA_SEARAD_NE USA_SEARAD_SE USA_SEARAD_SW USA_SEARAD_NW STORM_SPEED STORM_DIR
1924309N09086 1924 49 NI BB NOT_NAMED 1924-11-04 00:00:00 TS 8.90000 85.9000 main 474 446 _________O____ -1 8.90000 85.9000 TC 30 6 287
1924309N09086 1924 49 NI BB NOT_NAMED 1924-11-04 03:00:00 TS 8.99176 85.5934 main 446 410 _________PO___ -1 9.03763 85.4400 TC 31 8.90000 85.9000 1 8 290
1924309N09086 1924 49 NI BB NOT_NAMED 1924-11-04 06:00:00 TS 9.15518 85.1846 main 415 381 _________OP___ -1 9.20000 85.0000 TC 32 9.08795 85.4615 1 9 294
1924309N09086 1924 49 NI BB NOT_NAMED 1924-11-04 09:00:00 TS 9.34446 84.7792 main 381 350 _________PP___ -1 9.39993 84.5925 TC 33 9.27051 85.0281 1 9 295
1924309N09086 1924 49 NI BB NOT_NAMED 1924-11-04 12:00:00 TS 9.52140 84.4029 main 350 320 _________OP___ -1 9.60000 84.2000 TC 34 9.44280 84.6057 1 8 293
1924309N09086 1924 49 NI BB NOT_NAMED 1924-11-04 15:00:00 TS 9.67499 83.9962 main 320 288 _________PO___ -1 9.74998 83.7924 TC 36 9.60000 84.2000 2 8 291
1924309N09086 1924 49 NI BB NOT_NAMED 1924-11-04 18:00:00 TS 9.82114 83.6071 main 288 266 _________OP___ -1 9.90000 83.4000 TC 39 9.74228 83.8142 2 8 293
1924309N09086 1924 49 NI BB NOT_NAMED 1924-11-04 21:00:00 TS 9.98354 83.2496 main 263 251 _________PP___ -1 10.0774 83.0574 TC 42 9.88970 83.4418 2 8 297
1924309N09086 1924 49 NI BB NOT_NAMED 1924-11-05 00:00:00 TS 10.1836 82.8867 main 251 223 _________OP___ -1 10.3000 82.7000 TC 45 10.0673 83.0735 2 9 300
1924309N09086 1924 49 NI BB NOT_NAMED 1924-11-05 03:00:00 TS 10.4313 82.4750 main 223 211 _________PO___ -1 10.5626 82.2500 TC 45 10.3000 82.7000 3 10 304
1924309N09086 1924 49 NI BB NOT_NAMED 1924-11-05 06:00:00 TS 10.7446 82.0414 main 204 196 _________OP___ -1 10.9000 81.8000 TC 45 10.5892 82.2829 3 11 311
1924309N09086 1924 49 NI BB NOT_NAMED 1924-11-05 09:00:00 TS 11.1288 81.6487 main 185 156 _________PP___ -1 11.3199 81.4349 TC 45 10.9377 81.8626 3 11 318
1924309N09086 1924 49 NI BB NOT_NAMED 1924-11-05 12:00:00 TS 11.5712 81.2805 main 156 94 _________OP___ -1 11.8000 81.1000 TC 45 11.3424 81.4609 3 12 321
1924309N09086 1924 49 NI BB NOT_NAMED 1924-11-05 15:00:00 TS 12.0388 80.9100 main 94 43 _________PO___ -1 12.2776 80.7200 TC 41 11.8000 81.1000 3 12 326
1924309N09086 1924 49 NI BB NOT_NAMED 1924-11-05 18:00:00 TS 12.5762 80.5814 main 43 10 _________OP___ -1 12.8000 80.4000 TC 37 12.3523 80.7627 3 13 334
1924309N09086 1924 49 NI BB NOT_NAMED 1924-11-05 21:00:00 TS 13.1949 80.3354 main 10 0 _________PP___ -1 13.4449 80.1975 TC 33 12.9448 80.4733 3 13 341
1924309N09086 1924 49 NI BB NOT_NAMED 1924-11-06 00:00:00 TS 13.7575 80.1736 main 0 0 _________OP___ -1 14.0000 80.1000 TC 30 13.5149 80.2471 3 10 345
1924309N09086 1924 49 NI BB NOT_NAMED 1924-11-06 03:00:00 TS 14.1262 80.0849 main 0 0 _________PO___ -1 14.2525 80.0699 TC 30 14.0000 80.1000 1 6 351
1924309N09086 1924 49 NI BB NOT_NAMED 1924-11-06 06:00:00 TS 14.3591 80.0726 main 0 0 _________OP___ -1 14.4000 80.1000 TC 30 14.3182 80.0452 1 5 0
1924309N09086 1924 49 NI BB NOT_NAMED 1924-11-06 09:00:00 TS 14.5949 80.1083 main 0 0 _________PP___ -1 14.6425 80.1500 TC 30 14.5473 80.0667 1 5 11
1924309N09086 1924 49 NI BB NOT_NAMED 1924-11-06 12:00:00 TS 14.8138 80.1649 main 10 10 _________OP___ -1 14.9000 80.2000 TC 30 14.7277 80.1298 1 4 11
1924309N09086 1924 49 NI BB NOT_NAMED 1924-11-06 15:00:00 TS 15.0287 80.2000 main 21 15 _________PO___ -1 15.1575 80.2000 TC 30 14.9000 80.2000 1 5 3
1924309N09086 1924 49 NI BB NOT_NAMED 1924-11-06 18:00:00 TS 15.2624 80.1924 main 10 0 _________OP___ -1 15.4000 80.2000 TC 30 15.1249 80.1847 1 4 0
1924309N09086 1924 49 NI BB NOT_NAMED 1924-11-06 21:00:00 TS 15.4749 80.1978 main 0 0 _________PP___ -1 15.6000 80.2201 TC 30 15.3498 80.1755 1 4 7
1924309N09086 1924 49 NI BB NOT_NAMED 1924-11-07 00:00:00 TS 15.6874 80.2518 main 0 0 _________OP___ -1 15.8000 80.3000 TC 30 15.5748 80.2036 1 5 21
1924309N09086 1924 49 NI BB NOT_NAMED 1924-11-07 03:00:00 TS 15.9250 80.3775 main 0 0 _________PO___ -1 16.0499 80.4550 TC 30 15.8000 80.3000 1 6 35
1924309N09086 1924 49 NI BB NOT_NAMED 1924-11-07 06:00:00 TS 16.1686 80.5974 main 0 0 _________OP___ -1 16.3000 80.7000 TC 30 16.0373 80.4947 1 7 47
1924309N09086 1924 49 NI BB NOT_NAMED 1924-11-07 09:00:00 TS 16.3938 80.8973 main 0 0 _________PP___ -1 16.5151 81.0350 TC 30 16.2726 80.7597 1 7 55
1924309N09086 1924 49 NI BB NOT_NAMED 1924-11-07 12:00:00 TS 16.5983 81.2349 main 0 0 _________OP___ -1 16.7000 81.4000 TC 30 16.4966 81.0698 1 7 58
1924309N09086 1924 49 NI BB NOT_NAMED 1924-11-07 15:00:00 TS 16.7787 81.5501 main 0 0 _________PO___ -1 16.8574 81.7001 TC 30 16.7000 81.4000 1 7 60
1924309N09086 1924 49 NI BB NOT_NAMED 1924-11-07 18:00:00 TS 16.9293 81.8454 main 0 0 _________OP___ -1 17.0000 82.0000 TC 30 16.8763 81.7294 1 7 63
1924309N09086 1924 49 NI BB NOT_NAMED 1924-11-07 21:00:00 TS 17.0772 82.1679 main 0 0 _________PP___ -1 17.1477 82.3373 TC 30 17.0302 82.0549 1 7 65
1924309N09086 1924 49 NI BB NOT_NAMED 1924-11-08 00:00:00 TS 17.2127 82.4853 main 0 0 _________OP___ -1 17.3000 82.7000 TC 30 17.1690 82.3780 1 6 66
1924309N09086 1924 49 NI BB NOT_NAMED 1924-11-08 03:00:00 NR 17.3000 82.7000 main 10 __________O___ -1 TC 17.3000 82.7000 1 4 67

About IBTrACS Database

This database is a web-friendly format of International Best Track Archive for Climate Stewardship (IBTrACS), a global best track data archive curated by NOAA dating back to 1842.

Updated: 2021-11-26